Time;durP1;ratioP1;P1;durP2;ratioP2;P2;SDS_P1;SDS_P2;PMS_P1;PMS_P2;Temp;Humidity;BMP_temperature;BMP_pressure;BME280_temperature;BME280_humidity;BME280_pressure;Samples;Min_cycle;Max_cycle;Signal;HPM_P1;HPM_P2
2021/05/06 00:02:16;;;;;;;10.80;1.90;;;6.50;99.90;;;7.38;65.91;100135.25;5068905;28;20426;-72
2021/05/06 00:10:59;;;;;;;11.23;1.90;;;6.50;99.90;;;7.35;65.74;100124.94;5066181;28;20207;-72
2021/05/06 00:30:20;;;;;;;11.25;1.85;;;6.50;99.90;;;7.30;65.34;100153.72;5071302;28;20318;-72
2021/05/06 00:32:51;;;;;;;11.55;1.98;;;6.50;99.90;;;7.29;65.50;100152.03;5072228;28;20567;-73
2021/05/06 00:35:18;;;;;;;14.18;2.10;;;6.50;99.90;;;7.28;65.36;100150.31;5067027;28;20187;-72
2021/05/06 00:37:54;;;;;;;10.68;1.88;;;6.50;99.90;;;7.27;65.33;100148.63;5064137;28;20664;-72
2021/05/06 00:40:21;;;;;;;11.07;2.17;;;6.50;99.90;;;7.26;65.70;100148.66;5071214;28;20668;-73
2021/05/06 00:43:09;;;;;;;8.70;1.83;;;6.50;99.90;;;7.26;65.73;100146.94;5069405;28;20207;-72
2021/05/06 00:46:09;;;;;;;9.52;2.45;;;6.50;99.90;;;7.26;65.70;100148.66;5068066;28;20258;-72
2021/05/06 00:54:25;;;;;;;8.77;1.75;;;6.40;99.90;;;7.24;65.77;100153.94;5066889;28;20275;-72
2021/05/06 00:56:57;;;;;;;10.02;1.88;;;6.40;99.90;;;7.21;66.06;100153.19;5068475;28;20198;-72
2021/05/06 00:59:40;;;;;;;8.80;1.90;;;6.40;99.90;;;7.21;66.41;100155.78;5062329;28;20184;-72
2021/05/06 01:02:30;;;;;;;12.88;1.77;;;6.40;99.90;;;7.20;66.16;100151.50;5068120;28;20223;-71
2021/05/06 01:05:00;;;;;;;11.23;1.60;;;6.30;99.90;;;7.15;66.38;100154.22;5070688;28;20264;-72
2021/05/06 01:07:42;;;;;;;6.13;1.55;;;6.30;99.90;;;7.15;66.37;100158.59;5065763;28;20225;-72
2021/05/06 01:10:31;;;;;;;7.85;1.63;;;6.30;99.90;;;7.11;66.33;100149.19;5060961;28;20204;-72
2021/05/06 01:12:58;;;;;;;8.63;1.58;;;6.30;99.90;;;7.06;66.49;100157.13;5062310;28;20668;-72
2021/05/06 01:15:25;;;;;;;7.80;1.50;;;6.20;99.90;;;7.03;66.36;100149.41;5057350;28;20215;-72
2021/05/06 01:17:52;;;;;;;6.95;1.50;;;6.20;99.90;;;7.01;66.34;100165.97;5060090;28;20197;-72
2021/05/06 01:20:20;;;;;;;8.80;1.85;;;6.20;99.90;;;6.98;66.30;100161.72;5062556;28;20190;-72
2021/05/06 01:22:48;;;;;;;6.30;1.60;;;6.20;99.90;;;6.97;66.09;100154.81;5058092;28;20304;-72
2021/05/06 01:25:15;;;;;;;11.27;1.52;;;6.20;99.90;;;6.96;65.96;100163.53;5068499;28;20192;-72
2021/05/06 01:27:44;;;;;;;9.90;1.73;;;6.10;99.90;;;6.94;65.86;100149.72;5059933;28;20595;-73
2021/05/06 01:30:25;;;;;;;7.03;1.80;;;6.10;99.90;;;6.93;66.10;100158.41;5067169;28;20184;-72
2021/05/06 01:32:55;;;;;;;10.32;1.70;;;6.10;99.90;;;6.91;65.63;100165.44;5057902;28;20288;-73
2021/05/06 01:35:30;;;;;;;8.43;1.80;;;6.10;99.90;;;6.93;66.00;100161.00;5071146;28;20199;-72
2021/05/06 01:38:09;;;;;;;6.35;1.65;;;6.10;99.90;;;6.91;65.66;100160.22;5074096;28;20694;-72
2021/05/06 01:40:53;;;;;;;7.53;1.85;;;6.10;99.90;;;6.86;65.72;100161.28;5056661;28;20273;-72
2021/05/06 01:43:31;;;;;;;8.25;1.50;;;6.00;99.90;;;6.81;65.89;100158.81;5068042;28;20231;-72
2021/05/06 01:46:20;;;;;;;8.75;1.40;;;6.00;99.90;;;6.77;66.00;100157.22;5067800;28;20204;-73
2021/05/06 01:49:24;;;;;;;9.75;1.60;;;6.00;99.90;;;6.72;66.09;100159.09;5074532;28;20215;-72
2021/05/06 01:57:59;;;;;;;8.23;1.45;;;5.90;99.90;;;6.72;65.81;100161.69;5073892;28;20567;-72
2021/05/06 02:00:34;;;;;;;7.55;1.48;;;5.90;99.90;;;6.78;65.83;100158.06;5071600;28;20200;-72
2021/05/06 02:03:14;;;;;;;9.88;1.80;;;5.90;99.90;;;6.77;65.82;100154.59;5069350;28;20192;-72
2021/05/06 02:05:41;;;;;;;6.95;1.50;;;5.90;99.90;;;6.73;65.51;100155.59;5074334;28;20275;-72
2021/05/06 02:08:07;;;;;;;6.53;1.52;;;5.90;99.90;;;6.74;66.04;100156.44;5069089;28;20274;-72
2021/05/06 02:10:42;;;;;;;6.45;1.40;;;5.90;99.90;;;6.76;65.80;100158.13;5072148;28;20211;-72
2021/05/06 02:13:09;;;;;;;10.95;1.42;;;5.90;99.90;;;6.76;66.07;100150.31;5065169;28;20188;-73
2021/05/06 02:15:38;;;;;;;7.35;1.42;;;5.90;99.90;;;6.74;65.98;100140.84;5068577;28;20689;-72
2021/05/06 02:18:06;;;;;;;9.30;1.50;;;5.90;99.90;;;6.71;65.65;100149.59;5068428;28;20199;-72
2021/05/06 02:20:33;;;;;;;9.48;1.60;;;5.90;99.90;;;6.65;66.11;100152.38;5068845;28;20246;-72
2021/05/06 02:23:03;;;;;;;8.60;1.73;;;5.80;99.90;;;6.64;66.11;100150.69;5063846;28;20668;-72
2021/05/06 02:25:30;;;;;;;6.80;1.40;;;5.80;99.90;;;6.64;66.38;100160.22;5068411;28;20706;-72
2021/05/06 02:27:57;;;;;;;10.98;2.17;;;5.80;99.90;;;6.66;66.39;100155.84;5067607;28;20213;-73
2021/05/06 02:30:24;;;;;;;7.10;1.80;;;5.80;99.90;;;6.65;66.43;100157.56;5069508;28;20656;-72
2021/05/06 02:32:51;;;;;;;14.70;2.08;;;5.80;99.90;;;6.65;66.75;100156.75;5063779;28;20213;-72
2021/05/06 02:35:17;;;;;;;8.85;1.40;;;5.80;99.90;;;6.63;66.75;100159.38;5064902;28;20192;-74
2021/05/06 02:37:45;;;;;;;8.65;2.00;;;5.80;99.90;;;6.63;67.10;100163.75;5065882;28;20242;-72
2021/05/06 02:40:12;;;;;;;9.98;2.15;;;5.80;99.90;;;6.62;67.00;100162.88;5071380;28;20193;-72
2021/05/06 02:42:40;;;;;;;17.65;2.08;;;5.80;99.90;;;6.64;67.17;100158.50;5067576;28;20222;-71
2021/05/06 02:45:10;;;;;;;7.70;1.77;;;5.80;99.90;;;6.66;67.62;100163.63;5071878;28;20210;-73
2021/05/06 02:47:37;;;;;;;14.32;2.78;;;5.80;99.90;;;6.63;67.56;100153.34;5062537;28;20208;-72
2021/05/06 02:50:08;;;;;;;11.77;1.88;;;5.80;99.90;;;6.61;67.90;100166.38;5068067;28;20197;-72
2021/05/06 02:52:37;;;;;;;5.90;1.48;;;5.80;99.90;;;6.61;67.78;100163.78;5063445;28;20262;-72
2021/05/06 02:55:09;;;;;;;9.65;1.83;;;5.70;99.90;;;6.62;67.90;100167.22;5066714;28;20337;-72
2021/05/06 02:57:39;;;;;;;17.85;2.15;;;5.70;99.90;;;6.60;67.93;100169.88;5067385;28;20214;-71
2021/05/06 03:02:55;;;;;;;9.15;1.90;;;5.70;99.90;;;6.59;68.46;100169.91;5064937;28;20337;-72
2021/05/06 03:05:26;;;;;;;10.50;1.98;;;5.70;99.90;;;6.56;68.46;100173.47;5068778;28;20687;-72
2021/05/06 03:08:01;;;;;;;11.77;1.90;;;5.70;99.90;;;6.55;68.64;100168.31;5067099;28;20315;-72
2021/05/06 03:24:15;;;;;;;12.90;2.63;;;5.60;99.90;;;6.44;68.73;100171.22;5066288;28;20192;-72
2021/05/06 03:26:41;;;;;;;12.80;2.10;;;5.60;99.90;;;6.43;68.69;100176.47;5068224;28;20193;-72
2021/05/06 03:29:11;;;;;;;10.10;2.00;;;5.60;99.90;;;6.41;69.10;100173.94;5064864;28;20215;-73
2021/05/06 03:43:00;;;;;;;12.18;2.15;;;5.60;99.90;;;6.50;68.81;100189.22;5061856;28;20686;-73
2021/05/06 03:45:45;;;;;;;8.57;2.10;;;5.60;99.90;;;6.48;69.03;100185.81;5063180;28;20708;-72
2021/05/06 03:48:41;;;;;;;10.85;1.80;;;5.60;99.90;;;6.49;69.02;100181.47;5069140;28;20223;-72
2021/05/06 04:16:20;;;;;;;11.88;2.15;;;5.70;99.90;;;6.61;67.63;100196.72;5028890;28;20199;-72
2021/05/06 04:18:53;;;;;;;8.07;1.67;;;5.80;99.90;;;6.62;67.59;100208.81;5066848;28;20275;-72
2021/05/06 04:21:32;;;;;;;7.05;1.70;;;5.80;99.90;;;6.64;67.28;100207.88;5064709;28;20216;-72
2021/05/06 04:26:50;;;;;;;14.80;2.05;;;5.80;99.90;;;6.72;67.05;100203.28;5068511;28;20199;-72
2021/05/06 04:37:31;;;;;;;8.30;1.58;;;5.90;99.90;;;6.76;66.26;100223.09;5065234;28;20270;-72
2021/05/06 04:39:59;;;;;;;8.95;2.08;;;5.90;99.90;;;6.79;66.16;100223.00;5062871;28;20194;-72
2021/05/06 04:53:40;;;;;;;10.10;1.88;;;6.10;99.90;;;6.96;65.41;100212.94;5062615;28;20192;-73
2021/05/06 04:56:16;;;;;;;9.20;1.55;;;6.20;99.90;;;7.00;65.53;100218.91;5073163;28;20192;-72
2021/05/06 05:04:18;;;;;;;9.00;1.70;;;6.30;99.90;;;7.06;65.02;100214.38;5050440;28;20207;-74
2021/05/06 05:06:51;;;;;;;9.63;2.28;;;6.30;99.90;;;7.09;65.26;100222.06;5049097;28;20196;-74
2021/05/06 05:09:39;;;;;;;6.55;1.60;;;6.30;99.90;;;7.10;64.94;100217.72;5055290;28;20228;-75
2021/05/06 05:12:12;;;;;;;9.50;1.90;;;6.30;99.90;;;7.11;64.82;100217.66;5054858;28;20218;-74
2021/05/06 05:15:01;;;;;;;9.50;1.65;;;6.40;99.90;;;7.15;64.47;100215.81;5070071;28;20192;-74
2021/05/06 05:17:51;;;;;;;7.22;1.95;;;6.40;99.90;;;7.20;64.45;100224.34;5061739;28;20758;-74
2021/05/06 05:20:21;;;;;;;8.63;1.92;;;6.50;99.90;;;7.22;64.18;100227.72;5052539;28;20197;-73
2021/05/06 05:25:35;;;;;;;10.52;2.00;;;6.60;99.90;;;7.31;63.89;100230.91;5058781;28;20206;-74
2021/05/06 05:28:04;;;;;;;8.73;2.33;;;6.60;99.90;;;7.36;63.88;100234.19;5072715;28;20216;-74
2021/05/06 05:30:33;;;;;;;8.23;2.00;;;6.70;99.90;;;7.42;63.76;100233.97;5055099;28;20196;-72
2021/05/06 05:32:59;;;;;;;10.45;1.80;;;6.70;99.90;;;7.45;63.56;100218.25;5065081;28;20212;-70
2021/05/06 05:35:36;;;;;;;9.63;1.98;;;6.80;99.90;;;7.54;63.44;100224.91;5056270;28;20200;-71
2021/05/06 05:38:09;;;;;;;6.78;1.98;;;6.90;99.90;;;7.65;63.12;100225.44;5070203;28;20311;-72
2021/05/06 05:40:41;;;;;;;8.95;1.83;;;7.00;99.90;;;7.73;62.83;100222.56;5058319;28;20193;-70
2021/05/06 05:43:22;;;;;;;9.00;1.95;;;7.00;99.90;;;7.77;62.57;100227.59;5073169;28;20246;-71
2021/05/06 05:46:20;;;;;;;8.80;1.90;;;7.10;99.90;;;7.79;62.82;100224.97;5055059;28;20185;-71
2021/05/06 05:54:35;;;;;;;8.77;1.98;;;7.30;99.90;;;7.92;62.05;100219.25;5054839;28;20226;-71
2021/05/06 05:57:06;;;;;;;11.18;2.00;;;7.30;99.90;;;7.98;61.90;100223.41;5059943;28;20382;-72
2021/05/06 05:59:32;;;;;;;7.72;1.80;;;7.40;99.90;;;8.05;61.69;100217.94;5058113;28;20189;-70
2021/05/06 06:01:59;;;;;;;9.57;1.85;;;7.50;99.90;;;8.12;61.59;100208.97;5059424;28;20219;-71
2021/05/06 06:04:25;;;;;;;9.55;1.83;;;7.60;99.90;;;8.24;61.07;100215.56;5062564;28;20223;-70
2021/05/06 06:06:52;;;;;;;8.80;2.00;;;7.70;99.90;;;8.32;60.75;100219.56;5061951;28;20362;-72
2021/05/06 06:09:18;;;;;;;14.95;2.13;;;7.80;99.90;;;8.42;60.55;100220.09;5061114;28;20216;-72
2021/05/06 06:11:45;;;;;;;11.55;2.13;;;7.90;99.90;;;8.51;60.43;100220.59;5053891;28;20566;-70
2021/05/06 06:14:12;;;;;;;9.10;1.80;;;8.10;99.90;;;8.59;60.39;100215.09;5060015;28;20192;-71
2021/05/06 06:16:41;;;;;;;9.45;2.20;;;8.20;99.90;;;8.64;60.14;100216.59;5061867;28;20195;-71
2021/05/06 06:19:07;;;;;;;8.52;2.00;;;8.30;99.90;;;8.68;60.37;100220.81;5057610;28;20223;-71
2021/05/06 06:21:41;;;;;;;9.93;1.98;;;8.40;99.90;;;8.77;59.83;100214.41;5072310;28;20211;-69
2021/05/06 06:24:09;;;;;;;12.90;2.33;;;8.50;99.90;;;8.87;59.79;100223.56;5065540;28;20203;-72
2021/05/06 06:26:35;;;;;;;9.10;2.22;;;8.60;99.90;;;8.86;59.48;100217.50;5070118;28;20180;-68
2021/05/06 06:29:06;;;;;;;12.77;2.00;;;8.60;99.90;;;8.81;59.83;100218.56;5074706;28;20208;-71
2021/05/06 06:31:37;;;;;;;8.75;1.90;;;8.60;99.90;;;8.87;59.73;100220.97;5061132;28;20612;-70
2021/05/06 06:34:04;;;;;;;8.73;2.10;;;8.70;99.90;;;8.95;59.37;100225.88;5057644;28;20203;-71
2021/05/06 06:36:30;;;;;;;11.00;2.03;;;8.90;99.90;;;9.03;59.32;100222.06;5050003;28;20219;-71
2021/05/06 06:38:57;;;;;;;6.57;2.05;;;9.20;99.90;;;9.19;59.02;100222.31;5078350;28;20544;-70
2021/05/06 06:41:24;;;;;;;7.43;2.00;;;9.50;99.90;;;9.35;58.76;100213.78;5059873;28;20798;-70
2021/05/06 06:43:52;;;;;;;8.23;1.70;;;9.70;99.90;;;9.56;58.67;100212.91;5060686;28;20257;-71
2021/05/06 06:46:19;;;;;;;7.60;2.03;;;10.00;99.90;;;9.64;57.84;100200.38;5068621;28;20811;-71
2021/05/06 06:48:47;;;;;;;11.73;2.00;;;10.00;99.90;;;9.70;57.90;100210.56;5049287;28;20315;-70
2021/05/06 06:51:14;;;;;;;6.63;1.60;;;10.00;99.90;;;9.71;57.63;100214.84;5058350;28;20253;-69
2021/05/06 06:53:41;;;;;;;10.95;1.88;;;9.90;99.90;;;9.75;57.44;100206.00;5055061;28;20362;-70
2021/05/06 06:56:08;;;;;;;9.43;2.53;;;9.90;99.90;;;9.80;56.78;100211.88;5051925;28;20193;-70
2021/05/06 06:58:34;;;;;;;6.60;1.83;;;9.90;99.90;;;9.80;56.50;100209.25;5060117;28;20189;-70
2021/05/06 07:01:01;;;;;;;10.55;1.85;;;9.90;99.90;;;9.76;56.59;100199.84;5056458;28;20255;-71
2021/05/06 07:03:28;;;;;;;7.00;1.42;;;9.80;99.90;;;9.69;56.31;100202.78;5026767;28;553489;-71
2021/05/06 07:05:56;;;;;;;11.98;2.00;;;9.70;99.90;;;9.61;56.46;100205.72;5061412;28;20196;-70
2021/05/06 07:08:26;;;;;;;9.93;1.73;;;9.70;99.90;;;9.63;56.49;100219.56;5063954;28;20240;-69
2021/05/06 07:10:55;;;;;;;11.88;1.88;;;9.70;99.90;;;9.85;56.82;100214.28;5058670;28;20293;-69
2021/05/06 07:13:23;;;;;;;10.55;2.28;;;9.90;99.90;;;9.95;56.23;100215.59;5062412;28;21263;-71
2021/05/06 07:15:54;;;;;;;12.77;2.33;;;10.00;99.90;;;10.04;56.11;100216.06;5063995;28;20204;-69
2021/05/06 07:18:21;;;;;;;10.27;1.98;;;10.10;99.90;;;10.16;55.93;100217.31;5056695;28;20196;-70
2021/05/06 07:20:49;;;;;;;8.50;1.95;;;10.30;99.90;;;10.17;55.62;100207.69;5064207;28;20223;-69
2021/05/06 07:23:19;;;;;;;13.05;1.90;;;10.30;99.90;;;10.11;55.27;100219.28;5057631;28;20203;-69
2021/05/06 07:25:47;;;;;;;8.35;1.70;;;10.30;99.90;;;10.05;55.05;100216.88;5066971;28;20208;-71
2021/05/06 07:28:17;;;;;;;9.48;1.80;;;10.10;99.90;;;10.02;55.33;100219.63;5056939;28;20242;-70
2021/05/06 07:30:44;;;;;;;5.60;1.42;;;10.10;99.90;;;10.07;55.66;100217.66;5060079;28;20329;-70
2021/05/06 07:33:11;;;;;;;10.18;2.15;;;10.10;99.90;;;10.12;55.32;100210.50;5056689;28;20290;-70
2021/05/06 07:35:38;;;;;;;9.85;1.90;;;10.20;99.90;;;10.13;55.01;100225.25;5063852;28;20216;-70
2021/05/06 07:38:06;;;;;;;7.85;1.70;;;10.10;99.90;;;10.13;54.56;100213.97;5065057;28;20229;-69
2021/05/06 07:40:34;;;;;;;7.70;2.03;;;10.10;99.90;;;10.09;54.56;100208.91;5057907;28;20259;-70
2021/05/06 07:43:01;;;;;;;8.50;2.20;;;10.10;99.90;;;10.11;54.42;100201.81;5066183;28;20712;-70
2021/05/06 07:45:27;;;;;;;9.20;1.92;;;10.20;99.90;;;10.24;54.42;100202.13;5066734;28;20224;-68
2021/05/06 07:47:54;;;;;;;14.60;2.10;;;10.30;99.90;;;10.43;54.35;100213.47;5059091;28;20196;-70
2021/05/06 07:50:21;;;;;;;8.82;1.65;;;10.50;99.90;;;10.56;54.16;100209.38;5054178;28;20200;-72
2021/05/06 07:52:50;;;;;;;6.68;1.65;;;10.60;99.90;;;10.62;54.05;100208.22;5062300;28;20196;-69
2021/05/06 07:55:17;;;;;;;9.57;1.88;;;10.70;99.90;;;10.59;54.40;100211.00;5058049;28;20723;-69
2021/05/06 07:57:44;;;;;;;8.55;1.83;;;10.70;99.90;;;10.53;54.45;100214.75;5066442;28;20203;-70
2021/05/06 08:00:17;;;;;;;6.25;1.88;;;10.60;99.90;;;10.50;54.06;100212.25;5059151;28;20299;-70
2021/05/06 08:02:45;;;;;;;11.13;1.98;;;10.50;99.90;;;10.40;54.35;100210.97;5054455;28;20219;-71
2021/05/06 08:05:12;;;;;;;11.95;2.08;;;10.40;99.90;;;10.35;54.13;100210.31;5057813;28;20205;-69
2021/05/06 08:07:39;;;;;;;10.93;2.10;;;10.30;99.90;;;10.40;53.94;100212.75;5066796;28;20196;-70
2021/05/06 08:10:07;;;;;;;8.65;2.03;;;10.40;99.90;;;10.39;53.79;100214.53;5055077;28;20217;-68
2021/05/06 08:12:33;;;;;;;10.43;2.72;;;10.40;99.90;;;10.30;53.37;100217.53;5053751;28;20220;-70
2021/05/06 08:15:02;;;;;;;8.40;1.67;;;10.20;99.90;;;10.20;53.23;100218.84;5053611;28;20189;-72
2021/05/06 08:17:28;;;;;;;10.88;1.90;;;10.10;99.90;;;10.28;52.92;100215.91;5058859;28;20630;-69
2021/05/06 08:19:56;;;;;;;7.22;1.80;;;10.20;99.90;;;10.46;53.29;100215.94;5058967;28;20200;-71
2021/05/06 08:22:22;;;;;;;9.90;2.00;;;10.40;99.90;;;10.69;52.34;100209.66;5060462;28;20235;-70
2021/05/06 08:24:49;;;;;;;6.18;1.63;;;10.60;99.90;;;10.81;52.27;100215.19;5060697;28;20696;-70
2021/05/06 08:27:15;;;;;;;8.30;2.25;;;10.80;99.90;;;10.82;51.74;100201.16;5063421;28;20195;-70
2021/05/06 08:29:41;;;;;;;8.70;1.90;;;10.80;99.90;;;10.89;51.69;100196.47;5070320;28;20231;-71
2021/05/06 08:32:09;;;;;;;6.32;1.90;;;10.90;99.90;;;10.92;51.50;100202.41;5062754;28;20224;-70
2021/05/06 08:34:35;;;;;;;8.63;2.10;;;10.90;99.90;;;10.92;51.06;100206.78;5055765;28;20268;-70
2021/05/06 08:37:02;;;;;;;8.93;2.10;;;10.90;99.90;;;10.96;50.81;100205.75;5061766;28;20201;-70
2021/05/06 08:39:28;;;;;;;6.80;2.10;;;10.90;99.90;;;11.10;50.71;100201.53;5055924;28;20207;-71
2021/05/06 08:41:55;;;;;;;16.58;6.03;;;11.10;99.90;;;11.20;50.69;100201.97;5053909;28;20852;-70
2021/05/06 08:44:26;;;;;;;7.10;2.10;;;11.10;99.90;;;11.22;50.60;100206.19;5075461;28;20630;-70
2021/05/06 08:47:03;;;;;;;9.40;2.22;;;11.20;99.90;;;11.22;50.55;100200.94;5062347;28;20196;-71
2021/05/06 08:49:31;;;;;;;11.05;1.73;;;11.20;99.90;;;11.32;50.44;100206.59;5059584;28;20227;-70
2021/05/06 08:51:59;;;;;;;8.52;2.08;;;11.30;99.90;;;11.36;50.45;100208.13;5056746;28;20212;-72
2021/05/06 08:54:25;;;;;;;9.63;2.55;;;11.40;99.90;;;11.31;50.48;100207.50;5056193;28;20273;-70
2021/05/06 08:56:52;;;;;;;7.03;1.90;;;11.30;99.90;;;11.23;50.47;100213.16;5053716;28;20196;-68
2021/05/06 08:59:19;;;;;;;9.65;2.28;;;11.30;99.90;;;11.27;50.63;100213.81;5057721;28;20203;-70
2021/05/06 09:01:47;;;;;;;10.98;3.33;;;11.30;99.90;;;11.33;50.46;100216.16;5055183;28;20216;-70
2021/05/06 09:04:13;;;;;;;13.05;3.15;;;11.40;99.90;;;11.40;50.56;100214.94;5055580;28;20219;-70
2021/05/06 09:06:54;;;;;;;11.10;2.58;;;11.50;99.90;;;11.48;50.80;100220.63;5053066;28;20200;-70
2021/05/06 09:09:21;;;;;;;9.65;2.70;;;11.60;99.90;;;11.44;50.74;100213.84;5057597;28;20238;-70
2021/05/06 09:11:53;;;;;;;8.80;2.47;;;11.50;99.80;;;11.40;50.41;100214.94;5052149;28;20218;-69
2021/05/06 09:14:35;;;;;;;8.80;2.40;;;11.50;99.90;;;11.48;50.60;100222.41;5057004;28;20202;-69
2021/05/06 09:17:01;;;;;;;10.95;2.70;;;11.60;99.90;;;11.52;50.57;100224.78;5061871;28;20208;-69
2021/05/06 09:19:28;;;;;;;8.77;2.92;;;11.70;99.70;;;11.57;50.71;100222.78;5059710;28;20192;-69
2021/05/06 09:21:59;;;;;;;17.70;3.47;;;11.80;99.90;;;11.68;50.69;100225.78;5053475;28;20212;-70
2021/05/06 09:24:35;;;;;;;11.85;2.88;;;11.90;99.80;;;11.70;50.49;100218.69;5057537;28;20238;-67
2021/05/06 09:27:05;;;;;;;12.38;3.28;;;11.90;99.80;;;11.66;50.25;100232.88;5062100;28;20202;-72
2021/05/06 09:29:35;;;;;;;11.10;3.33;;;11.90;99.30;;;11.39;50.70;100223.69;5065921;28;20250;-71
2021/05/06 09:32:14;;;;;;;10.27;3.40;;;11.50;99.90;;;11.22;52.00;100223.66;5070868;28;20216;-70
2021/05/06 09:34:43;;;;;;;11.00;3.25;;;11.40;99.90;;;11.10;52.41;100217.25;5059913;28;20277;-70
2021/05/06 09:37:22;;;;;;;9.98;3.22;;;11.20;99.90;;;11.10;52.25;100229.50;5060909;28;20196;-70
2021/05/06 09:39:58;;;;;;;26.50;5.82;;;11.20;99.90;;;11.21;52.52;100219.34;5060374;28;20195;-72
2021/05/06 09:42:37;;;;;;;15.57;4.00;;;11.20;99.90;;;11.33;51.90;100224.88;5056554;28;20372;-70
2021/05/06 09:45:06;;;;;;;11.35;3.55;;;11.30;99.90;;;11.60;51.53;100217.41;5058438;28;20653;-70
2021/05/06 09:47:32;;;;;;;9.93;3.10;;;11.70;99.90;;;11.90;50.39;100213.28;5054317;28;20184;-70
2021/05/06 09:49:59;;;;;;;8.88;3.00;;;12.00;99.40;;;11.87;50.56;100210.78;5061428;28;20217;-70
2021/05/06 09:52:26;;;;;;;13.07;3.40;;;12.10;99.50;;;11.84;50.71;100215.38;5057238;28;20215;-70
2021/05/06 09:54:54;;;;;;;9.32;3.30;;;12.10;99.30;;;11.68;50.76;100212.66;5054964;28;20199;-69
2021/05/06 09:57:28;;;;;;;9.10;3.17;;;12.00;99.20;;;11.44;51.21;100218.25;5056380;28;20239;-70
2021/05/06 10:00:15;;;;;;;9.40;3.28;;;11.60;99.90;;;11.18;52.27;100209.03;5059087;28;20203;-69
2021/05/06 10:02:42;;;;;;;9.20;3.45;;;11.40;99.90;;;11.02;53.42;100208.06;5057504;28;20215;-70
2021/05/06 10:05:15;;;;;;;11.48;3.92;;;11.20;99.90;;;10.94;54.64;100215.44;5057260;28;20200;-70
2021/05/06 10:07:53;;;;;;;10.60;3.70;;;10.90;99.90;;;10.88;54.96;100210.50;5061465;28;20696;-71
2021/05/06 10:10:23;;;;;;;11.52;3.60;;;10.80;99.90;;;10.83;55.35;100215.97;5061877;28;20269;-70
2021/05/06 10:12:50;;;;;;;14.85;4.25;;;10.80;99.90;;;10.84;55.23;100214.16;5064213;28;20235;-72
2021/05/06 10:15:18;;;;;;;13.55;4.10;;;10.80;99.90;;;10.80;55.07;100217.88;5071038;28;20198;-72
2021/05/06 10:17:45;;;;;;;10.10;4.32;;;10.70;99.90;;;10.78;55.21;100214.47;5077164;28;20199;-73
2021/05/06 10:20:12;;;;;;;13.70;4.85;;;10.70;99.90;;;10.79;55.48;100222.25;5069316;28;20680;-71
2021/05/06 10:22:39;;;;;;;15.15;5.20;;;10.70;99.90;;;10.85;55.82;100221.94;5092145;28;20211;-72
2021/05/06 10:25:09;;;;;;;11.77;5.05;;;10.80;99.90;;;10.89;55.83;100217.41;5073434;28;20711;-72
2021/05/06 10:27:36;;;;;;;11.20;5.20;;;10.80;99.90;;;10.85;55.87;100216.72;5075936;28;20188;-72
2021/05/06 10:30:05;;;;;;;12.38;4.30;;;10.70;99.90;;;10.80;55.83;100220.47;5094424;28;20216;-72
2021/05/06 10:32:34;;;;;;;12.95;4.63;;;10.70;99.90;;;10.72;55.97;100225.19;5088433;28;20224;-72
2021/05/06 10:35:06;;;;;;;14.07;4.78;;;10.60;99.90;;;10.63;56.07;100229.13;5076302;28;20196;-72
2021/05/06 10:37:35;;;;;;;10.77;4.88;;;10.50;99.90;;;10.58;55.99;100240.69;5073820;28;20666;-72
2021/05/06 10:40:06;;;;;;;12.23;5.18;;;10.40;99.90;;;10.55;56.25;100243.47;5091670;28;20770;-71
2021/05/06 10:42:35;;;;;;;10.70;4.90;;;10.40;99.90;;;10.46;56.77;100244.72;5068025;28;20222;-72
2021/05/06 10:45:31;;;;;;;14.90;5.43;;;10.30;99.90;;;10.33;57.82;100251.41;5078301;28;20246;-72
2021/05/06 10:47:58;;;;;;;17.95;5.60;;;10.10;99.90;;;10.16;59.50;100253.06;5077530;28;20659;-72
2021/05/06 10:50:32;;;;;;;13.77;5.57;;;9.90;99.90;;;10.01;61.86;100257.16;5077137;28;20219;-72
2021/05/06 10:52:59;;;;;;;13.10;5.68;;;9.60;99.90;;;9.85;63.95;100259.56;5076103;28;20229;-72
2021/05/06 10:55:48;;;;;;;14.60;6.10;;;9.40;99.90;;;9.72;65.49;100250.53;5078356;28;20203;-72
2021/05/06 10:58:42;;;;;;;13.07;4.80;;;9.10;99.90;;;9.63;66.29;100242.22;5075833;28;20192;-72
2021/05/06 11:01:22;;;;;;;12.20;5.25;;;9.00;99.90;;;9.85;67.70;100246.50;5079302;28;20576;-72
2021/05/06 11:04:10;;;;;;;12.35;5.10;;;9.10;99.90;;;10.09;68.22;100245.50;5076219;28;20249;-72
2021/05/06 11:06:45;;;;;;;300.52;27.33;;;9.40;99.90;;;10.36;67.53;100238.19;5072390;28;20199;-71
2021/05/06 11:09:54;;;;;;;10.25;3.90;;;9.60;99.90;;;10.66;67.07;100235.97;5087497;28;21014;-69
2021/05/06 11:12:54;;;;;;;9.02;3.78;;;9.90;99.90;;;10.82;66.02;100237.81;5071031;28;20212;-71
2021/05/06 11:15:27;;;;;;;7.65;3.22;;;10.20;99.90;;;10.93;65.81;100225.09;5065862;28;20223;-71
2021/05/06 11:17:57;;;;;;;9.75;3.90;;;10.30;99.90;;;11.04;65.98;100228.03;5072951;28;20199;-71
2021/05/06 11:20:51;;;;;;;8.43;3.53;;;10.50;99.90;;;11.12;65.80;100225.03;5071576;28;20216;-70
2021/05/06 11:23:25;;;;;;;10.20;3.58;;;10.60;99.90;;;11.26;65.36;100218.22;5078897;28;20295;-71
2021/05/06 11:26:02;;;;;;;9.85;3.60;;;10.80;99.90;;;11.45;65.38;100217.31;5076353;28;20631;-71
2021/05/06 11:28:50;;;;;;;9.60;3.60;;;11.00;99.90;;;11.54;65.06;100214.25;5071890;28;20200;-70
2021/05/06 11:31:47;;;;;;;8.70;3.72;;;11.10;99.90;;;11.65;64.71;100211.97;5069598;28;20212;-71
2021/05/06 11:34:49;;;;;;;7.90;3.45;;;11.20;99.90;;;11.85;64.33;100209.19;5066963;28;20192;-69
2021/05/06 11:37:23;;;;;;;61.40;8.00;;;11.50;99.90;;;12.01;63.21;100210.09;5064574;28;20230;-71
2021/05/06 11:39:54;;;;;;;11.57;3.60;;;11.70;99.90;;;12.18;62.30;100205.69;5071318;28;20205;-71
2021/05/06 11:42:21;;;;;;;11.40;3.60;;;11.90;99.90;;;12.24;61.89;100202.72;5073372;28;20334;-71
2021/05/06 11:45:23;;;;;;;16.13;4.22;;;12.10;99.90;;;12.52;61.67;100200.31;5071392;28;20192;-70
2021/05/06 11:47:57;;;;;;;10.27;4.20;;;12.40;99.90;;;12.59;60.72;100185.94;5071289;28;20787;-69
2021/05/06 11:50:31;;;;;;;8.85;3.92;;;12.60;99.90;;;12.56;60.25;100180.84;5071963;28;20220;-70
2021/05/06 11:53:00;;;;;;;11.10;5.28;;;12.70;99.90;;;12.46;60.86;100190.16;5076621;28;20552;-70
2021/05/06 11:55:33;;;;;;;9.43;4.30;;;12.60;99.90;;;12.52;61.23;100197.69;5075310;28;20184;-70
2021/05/06 11:58:00;;;;;;;10.10;4.30;;;12.70;99.90;;;12.81;61.05;100185.59;5077171;28;20630;-70
2021/05/06 12:00:29;;;;;;;8.38;3.75;;;13.00;99.90;;;12.98;60.01;100187.31;5074612;28;20268;-70
2021/05/06 12:03:04;;;;;;;9.75;4.07;;;13.10;99.90;;;13.22;59.66;100185.94;5078470;28;20287;-69
2021/05/06 12:05:56;;;;;;;9.80;3.75;;;13.40;99.90;;;13.38;59.01;100192.03;5070743;28;20241;-71
2021/05/06 12:08:25;;;;;;;12.02;4.40;;;13.60;99.90;;;13.29;58.62;100192.56;5076287;28;20184;-69
2021/05/06 12:10:54;;;;;;;11.40;4.32;;;13.50;99.90;;;13.25;58.76;100188.41;5084011;28;20203;-71
2021/05/06 12:13:30;;;;;;;8.40;3.80;;;13.50;99.90;;;13.24;58.90;100174.44;5097982;28;20184;-71
2021/05/06 12:16:20;;;;;;;11.15;4.55;;;13.50;99.90;;;13.27;58.38;100168.13;5089925;28;20199;-70
2021/05/06 12:19:04;;;;;;;11.05;4.20;;;13.50;99.90;;;13.35;58.96;100165.91;5077632;28;20215;-69
2021/05/06 12:21:37;;;;;;;10.23;4.10;;;13.60;99.90;;;13.45;58.37;100167.94;5086090;28;20226;-69
2021/05/06 12:24:06;;;;;;;11.15;5.18;;;13.70;99.90;;;13.60;57.60;100168.81;5085457;28;20199;-70
2021/05/06 12:26:33;;;;;;;9.95;4.55;;;13.80;99.90;;;13.74;57.35;100153.06;5084721;28;20275;-69
2021/05/06 12:29:00;;;;;;;10.65;4.65;;;13.90;99.90;;;13.90;56.91;100159.09;5084752;28;20302;-69
2021/05/06 12:31:27;;;;;;;10.25;4.28;;;14.10;99.90;;;13.86;57.07;100157.59;5077755;28;20220;-71
2021/05/06 12:33:54;;;;;;;10.05;4.20;;;14.00;99.90;;;13.69;56.72;100149.88;5073766;28;20259;-71
2021/05/06 12:36:21;;;;;;;9.13;4.00;;;13.80;99.90;;;13.47;56.90;100157.31;5076410;28;20196;-70
2021/05/06 12:38:49;;;;;;;10.60;3.90;;;13.60;99.90;;;13.27;57.23;100152.38;5071336;28;20276;-71
2021/05/06 12:41:18;;;;;;;9.05;4.05;;;13.50;99.90;;;13.12;56.87;100153.25;5074609;28;20212;-70